createdAt,value
2018-12-04T00:01:10.047Z,8.70
2018-12-04T00:03:37.544Z,8.80
2018-12-04T00:06:05.037Z,8.30
2018-12-04T00:08:32.545Z,8.70
2018-12-04T00:11:00.039Z,8.90
2018-12-04T00:13:27.532Z,8.80
2018-12-04T00:15:55.013Z,8.70
2018-12-04T00:18:22.497Z,8.80
2018-12-04T00:20:49.973Z,8.70
2018-12-04T00:23:17.461Z,8.80
2018-12-04T00:25:44.951Z,8.90
2018-12-04T00:28:12.438Z,8.70
2018-12-04T00:30:39.921Z,8.80
2018-12-04T00:33:07.413Z,8.50
2018-12-04T00:35:34.893Z,8.80
2018-12-04T00:38:02.418Z,8.80
2018-12-04T00:40:29.981Z,8.80
2018-12-04T00:42:57.488Z,8.40
2018-12-04T00:45:24.980Z,8.60
2018-12-04T00:47:52.466Z,8.70
2018-12-04T00:50:19.958Z,8.70
2018-12-04T00:52:47.438Z,8.20
2018-12-04T00:55:14.916Z,8.70
2018-12-04T00:57:42.400Z,8.70
2018-12-04T01:00:10.096Z,8.70
2018-12-04T01:02:37.580Z,8.80
2018-12-04T01:05:05.233Z,8.60
2018-12-04T01:07:32.712Z,8.20
2018-12-04T01:10:00.198Z,8.70
2018-12-04T01:12:27.685Z,8.80
2018-12-04T01:14:56.040Z,8.60
2018-12-04T01:17:23.696Z,8.70
2018-12-04T01:19:51.183Z,8.90
2018-12-04T01:22:18.675Z,8.90
2018-12-04T01:24:46.183Z,8.70
2018-12-04T01:27:13.674Z,8.80
2018-12-04T01:29:41.168Z,8.70
2018-12-04T01:32:08.653Z,8.70
2018-12-04T01:34:36.142Z,8.70
2018-12-04T01:37:03.707Z,8.70
2018-12-04T01:39:31.206Z,8.60
2018-12-04T01:41:58.691Z,8.60
2018-12-04T01:44:26.180Z,8.50
2018-12-04T01:46:53.675Z,8.50
2018-12-04T01:49:21.165Z,8.50
2018-12-04T01:51:48.647Z,8.50
2018-12-04T01:54:16.129Z,8.70
2018-12-04T01:56:43.618Z,8.70
2018-12-04T01:59:11.104Z,8.70
2018-12-04T02:01:38.685Z,8.70
2018-12-04T02:04:06.167Z,8.70
2018-12-04T02:06:33.660Z,8.80
2018-12-04T02:09:01.169Z,8.80
2018-12-04T02:11:28.663Z,8.80
2018-12-04T02:13:56.150Z,8.80
2018-12-04T02:16:23.640Z,8.70
2018-12-04T02:18:51.133Z,8.80
2018-12-04T02:21:18.683Z,8.90
2018-12-04T02:23:46.205Z,9.00
2018-12-04T02:28:41.374Z,9.10
2018-12-04T02:31:08.865Z,9.10
2018-12-04T02:33:36.436Z,9.10
2018-12-04T02:36:04.059Z,9.50
2018-12-04T02:38:31.539Z,9.20
2018-12-04T02:40:59.045Z,9.30
2018-12-04T02:43:26.543Z,9.20
2018-12-04T02:45:54.019Z,9.20
2018-12-04T02:48:21.511Z,9.20
2018-12-04T02:50:48.997Z,9.10
2018-12-04T02:53:16.481Z,9.30
2018-12-04T02:55:43.972Z,9.20
2018-12-04T02:58:11.470Z,9.20
2018-12-04T03:00:38.971Z,9.10
2018-12-04T03:03:06.481Z,9.10
2018-12-04T03:05:33.973Z,9.10
2018-12-04T03:08:01.470Z,9.20
2018-12-04T03:10:28.960Z,9.10
2018-12-04T03:12:56.461Z,9.30
2018-12-04T03:15:23.949Z,9.20
2018-12-04T03:17:51.442Z,9.10
2018-12-04T03:20:18.931Z,9.10
2018-12-04T03:22:46.434Z,9.00
2018-12-04T03:25:13.953Z,9.10
2018-12-04T03:27:41.541Z,9.10
2018-12-04T03:30:09.088Z,9.10
2018-12-04T03:32:36.582Z,9.40
2018-12-04T03:35:04.633Z,9.20
2018-12-04T03:37:32.112Z,9.30
2018-12-04T03:39:59.689Z,9.30
2018-12-04T03:42:27.172Z,9.40
2018-12-04T03:44:54.655Z,9.40
2018-12-04T03:47:22.145Z,9.40
2018-12-04T03:49:49.629Z,9.50
2018-12-04T03:52:17.115Z,9.50
2018-12-04T03:54:44.606Z,9.60
2018-12-04T03:57:12.089Z,9.70
2018-12-04T03:59:39.585Z,9.70
2018-12-04T04:02:07.076Z,9.70
2018-12-04T04:04:34.569Z,9.70
2018-12-04T04:07:02.046Z,9.60
2018-12-04T04:09:29.527Z,9.60
2018-12-04T04:11:57.020Z,9.50
2018-12-04T04:14:24.510Z,9.50
2018-12-04T04:16:51.992Z,9.40
2018-12-04T04:19:19.485Z,9.10
2018-12-04T04:21:46.974Z,9.30
2018-12-04T04:24:14.468Z,9.20
2018-12-04T04:26:41.960Z,9.10
2018-12-04T04:29:09.560Z,9.10
2018-12-04T04:31:37.048Z,9.50
2018-12-04T04:34:04.536Z,9.00
2018-12-04T04:36:32.035Z,9.00
2018-12-04T04:38:59.528Z,9.00
2018-12-04T04:41:27.030Z,8.90
2018-12-04T04:43:54.519Z,8.90
2018-12-04T04:46:21.997Z,9.00
2018-12-04T04:48:49.481Z,9.00
2018-12-04T04:51:16.973Z,8.90
2018-12-04T04:53:44.482Z,8.90
2018-12-04T04:56:11.989Z,8.90
2018-12-04T04:58:39.490Z,8.90
2018-12-04T05:01:06.974Z,8.70
2018-12-04T05:03:34.541Z,9.00
2018-12-04T05:06:02.029Z,8.90
2018-12-04T05:08:29.517Z,8.80
2018-12-04T05:10:57.003Z,8.80
2018-12-04T05:13:24.489Z,9.00
2018-12-04T05:15:51.972Z,8.90
2018-12-04T05:18:19.470Z,8.60
2018-12-04T05:20:46.955Z,8.90
2018-12-04T05:23:14.451Z,8.70
2018-12-04T05:25:41.942Z,8.70
2018-12-04T05:28:09.448Z,8.70
2018-12-04T05:30:36.962Z,8.60
2018-12-04T05:33:04.552Z,8.60
2018-12-04T05:35:32.051Z,8.60
2018-12-04T05:37:59.557Z,8.50
2018-12-04T05:40:27.110Z,8.50
2018-12-04T05:42:54.658Z,8.60
2018-12-04T05:45:22.166Z,8.40
2018-12-04T05:47:49.655Z,8.40
2018-12-04T05:50:17.160Z,8.40
2018-12-04T05:55:14.112Z,8.30
2018-12-04T05:57:41.599Z,8.30
2018-12-04T06:00:09.280Z,8.30
2018-12-04T06:02:36.788Z,8.20
2018-12-04T06:05:04.439Z,8.30
2018-12-04T06:09:59.431Z,8.30
2018-12-04T06:12:26.931Z,8.40
2018-12-04T06:14:54.439Z,8.10
2018-12-04T06:17:21.932Z,8.20
2018-12-04T06:19:49.427Z,8.20
2018-12-04T06:22:16.920Z,8.10
2018-12-04T06:24:44.427Z,8.20
2018-12-04T06:27:11.926Z,8.10
2018-12-04T06:29:39.419Z,8.20
2018-12-04T06:32:06.981Z,8.10
2018-12-04T06:34:34.472Z,8.10
2018-12-04T06:37:02.033Z,7.80
2018-12-04T06:39:29.548Z,7.90
2018-12-04T06:41:57.090Z,8.00
2018-12-04T06:44:24.663Z,7.90
2018-12-04T06:46:52.147Z,8.00
2018-12-04T06:49:19.641Z,7.90
2018-12-04T06:51:47.151Z,8.00
2018-12-04T06:54:14.646Z,8.00
2018-12-04T06:56:42.149Z,8.10
2018-12-04T06:59:09.667Z,8.20
2018-12-04T07:04:04.661Z,8.20
2018-12-04T07:06:32.152Z,8.30
2018-12-04T07:08:59.645Z,8.30
2018-12-04T07:11:27.133Z,8.30
2018-12-04T07:13:54.627Z,8.40
2018-12-04T07:16:22.496Z,8.50
2018-12-04T07:18:50.001Z,8.50
2018-12-04T07:21:17.479Z,8.60
2018-12-04T07:23:45.125Z,8.70
2018-12-04T07:26:12.665Z,8.80
2018-12-04T07:28:40.198Z,8.90
2018-12-04T07:31:07.679Z,9.10
2018-12-04T07:33:35.173Z,9.20
2018-12-04T07:36:02.661Z,9.20
2018-12-04T07:38:30.158Z,9.40
2018-12-04T07:40:57.640Z,9.40
2018-12-04T07:43:25.135Z,9.50
2018-12-04T07:45:52.632Z,9.50
2018-12-04T07:48:20.128Z,9.60
2018-12-04T07:50:47.623Z,9.70
2018-12-04T07:53:15.195Z,9.80
2018-12-04T07:55:44.673Z,9.80
2018-12-04T07:58:12.157Z,9.90
2018-12-04T08:00:39.640Z,10.30
2018-12-04T08:03:07.127Z,10.40
2018-12-04T08:05:34.632Z,10.50
2018-12-04T08:08:02.128Z,10.40
2018-12-04T08:10:29.628Z,10.40
2018-12-04T08:12:57.116Z,10.30
2018-12-04T08:15:24.626Z,10.10
2018-12-04T08:17:52.130Z,10.20
2018-12-04T08:20:19.630Z,10.20
2018-12-04T08:22:47.121Z,10.30
2018-12-04T08:25:14.621Z,10.30
2018-12-04T08:27:42.105Z,10.40
2018-12-04T08:30:09.665Z,10.40
2018-12-04T08:32:37.163Z,10.40
2018-12-04T08:35:05.993Z,10.40
2018-12-04T08:37:33.485Z,10.40
2018-12-04T08:40:00.981Z,10.30
2018-12-04T08:42:28.475Z,10.30
2018-12-04T08:44:55.960Z,10.30
2018-12-04T08:47:23.445Z,10.20
2018-12-04T08:49:50.936Z,10.30
2018-12-04T08:52:18.439Z,10.20
2018-12-04T08:54:45.929Z,10.10
2018-12-04T08:57:13.417Z,10.20
2018-12-04T08:59:40.918Z,10.20
2018-12-04T09:02:08.423Z,10.10
2018-12-04T09:04:35.928Z,10.20
2018-12-04T09:07:03.431Z,10.10
2018-12-04T09:09:30.920Z,10.00
2018-12-04T09:11:58.437Z,10.00
2018-12-04T09:16:53.418Z,9.90
2018-12-04T09:19:20.922Z,9.80
2018-12-04T09:21:48.413Z,9.90
2018-12-04T09:24:16.042Z,9.90
2018-12-04T09:26:43.566Z,9.90
2018-12-04T09:29:11.129Z,9.80
2018-12-04T09:31:38.730Z,9.70
2018-12-04T09:34:06.216Z,9.60
2018-12-04T09:36:33.715Z,9.30
2018-12-04T09:39:01.227Z,9.30
2018-12-04T09:41:28.708Z,9.10
2018-12-04T09:43:56.203Z,9.00
2018-12-04T09:46:23.697Z,9.00
2018-12-04T09:48:51.202Z,8.90
2018-12-04T09:51:18.696Z,8.80
2018-12-04T09:53:51.911Z,8.80
2018-12-04T09:56:15.717Z,8.60
2018-12-04T09:58:43.271Z,8.70
2018-12-04T10:01:10.763Z,8.60
2018-12-04T10:03:38.256Z,8.70
2018-12-04T10:06:05.748Z,8.70
2018-12-04T10:08:33.234Z,8.60
2018-12-04T10:11:00.718Z,8.70
2018-12-04T10:13:28.208Z,8.70
2018-12-04T10:15:55.704Z,8.60
2018-12-04T10:18:23.184Z,8.70
2018-12-04T10:20:50.679Z,8.80
2018-12-04T10:23:18.177Z,9.00
2018-12-04T10:25:49.191Z,8.90
2018-12-04T10:28:17.126Z,9.10
2018-12-04T10:33:38.102Z,8.90
2018-12-04T10:36:05.624Z,8.70
2018-12-04T10:38:33.233Z,8.70
2018-12-04T10:41:00.729Z,8.70
2018-12-04T10:43:28.219Z,8.60
2018-12-04T10:45:55.709Z,8.60
2018-12-04T10:48:23.207Z,8.50
2018-12-04T10:50:50.693Z,8.60
2018-12-04T10:53:18.189Z,8.60
2018-12-04T10:55:45.675Z,8.50
2018-12-04T10:58:13.165Z,8.60
2018-12-04T11:00:46.372Z,8.60
2018-12-04T11:03:13.852Z,8.60
2018-12-04T11:05:41.341Z,7.10
2018-12-04T11:08:08.848Z,8.60
2018-12-04T11:10:36.351Z,8.60
2018-12-04T11:13:03.837Z,8.60
2018-12-04T11:15:31.340Z,8.60
2018-12-04T11:17:58.822Z,8.70
2018-12-04T11:20:26.314Z,8.70
2018-12-04T11:22:53.847Z,8.80
2018-12-04T11:25:21.407Z,8.90
2018-12-04T11:27:48.886Z,9.10
2018-12-04T11:30:16.439Z,9.20
2018-12-04T11:32:43.937Z,9.30
2018-12-04T11:35:11.444Z,9.50
2018-12-04T11:37:38.937Z,9.60
2018-12-04T11:40:06.893Z,9.60
2018-12-04T11:42:34.376Z,9.60
2018-12-04T11:47:29.402Z,9.50
2018-12-04T11:49:56.904Z,9.60
2018-12-04T11:52:24.476Z,9.60
2018-12-04T11:54:51.967Z,9.60
2018-12-04T11:57:20.908Z,9.70
2018-12-04T11:59:48.390Z,9.80
2018-12-04T12:02:16.222Z,10.00
2018-12-04T12:04:43.857Z,10.00
2018-12-04T12:07:11.397Z,10.20
2018-12-04T12:09:38.943Z,10.30
2018-12-04T12:12:06.527Z,10.30
2018-12-04T12:14:34.029Z,10.00
2018-12-04T12:17:01.533Z,10.20
2018-12-04T12:19:29.029Z,10.20
2018-12-04T12:24:24.018Z,9.90
2018-12-04T12:26:51.535Z,9.90
2018-12-04T12:29:19.024Z,9.90
2018-12-04T12:31:46.528Z,9.90
2018-12-04T12:34:14.057Z,9.80
2018-12-04T12:36:41.574Z,9.70
2018-12-04T12:39:09.077Z,9.70
2018-12-04T12:41:37.897Z,9.70
2018-12-04T12:44:05.633Z,9.70
2018-12-04T12:46:33.124Z,9.70
2018-12-04T12:49:00.637Z,9.70
2018-12-04T12:51:28.139Z,9.70
2018-12-04T12:53:55.637Z,9.70
2018-12-04T12:56:23.139Z,9.70
2018-12-04T12:58:50.647Z,9.60
2018-12-04T13:01:18.547Z,9.60
2018-12-04T13:03:46.280Z,9.60
2018-12-04T13:06:13.792Z,9.30
2018-12-04T13:08:41.307Z,9.10
2018-12-04T13:11:08.816Z,9.10
2018-12-04T13:13:36.963Z,8.90
2018-12-04T13:16:04.893Z,8.80
2018-12-04T13:18:32.391Z,8.40
2018-12-04T13:20:59.992Z,8.10
2018-12-04T13:23:27.476Z,7.50
2018-12-04T13:25:54.963Z,7.40
2018-12-04T13:28:22.467Z,7.40
2018-12-04T13:30:49.964Z,7.30
2018-12-04T13:33:17.441Z,7.10
2018-12-04T13:35:44.949Z,7.20
2018-12-04T13:38:12.456Z,7.20
2018-12-04T13:40:39.998Z,7.30
2018-12-04T13:43:07.509Z,7.30
2018-12-04T13:45:35.011Z,7.40
2018-12-04T13:48:02.637Z,7.40
2018-12-04T13:50:30.153Z,7.40
2018-12-04T13:52:57.650Z,7.40
2018-12-04T13:55:25.153Z,7.40
2018-12-04T13:57:52.684Z,7.40
2018-12-04T14:00:20.278Z,7.40
2018-12-04T14:02:47.782Z,7.40
2018-12-04T14:05:15.356Z,7.40
2018-12-04T14:07:42.859Z,7.40
2018-12-04T14:12:37.874Z,7.40
2018-12-04T14:15:05.642Z,7.40
2018-12-04T14:17:33.152Z,7.50
2018-12-04T14:20:00.676Z,7.50
2018-12-04T14:22:28.274Z,7.20
2018-12-04T14:24:55.760Z,7.30
2018-12-04T14:27:23.290Z,7.40
2018-12-04T14:29:50.793Z,7.30
2018-12-04T14:32:18.293Z,7.30
2018-12-04T14:34:45.807Z,7.30
2018-12-04T14:37:13.332Z,7.30
2018-12-04T14:39:40.945Z,7.10
2018-12-04T14:42:08.517Z,7.40
2018-12-04T14:44:36.160Z,6.90
2018-12-04T14:47:03.724Z,7.30
2018-12-04T14:49:31.205Z,7.20
2018-12-04T14:51:58.766Z,7.10
2018-12-04T14:54:26.371Z,7.20
2018-12-04T14:56:54.000Z,7.20
2018-12-04T14:59:21.647Z,7.10
2018-12-04T15:04:17.209Z,7.00
2018-12-04T15:06:45.387Z,6.80
2018-12-04T15:09:12.919Z,6.90
2018-12-04T15:11:40.480Z,7.00
2018-12-04T15:14:08.116Z,6.80
2018-12-04T15:16:35.626Z,6.90
2018-12-04T15:19:03.181Z,7.00
2018-12-04T15:21:30.811Z,6.90
2018-12-04T15:23:58.426Z,6.50
2018-12-04T15:26:26.136Z,6.90
2018-12-04T15:28:53.667Z,6.80
2018-12-04T15:31:21.319Z,6.70
2018-12-04T15:33:48.951Z,6.90
2018-12-04T15:36:16.568Z,6.60
2018-12-04T15:38:44.091Z,6.60
2018-12-04T15:41:11.707Z,6.70
2018-12-04T15:43:39.308Z,6.90
2018-12-04T15:46:06.839Z,6.70
2018-12-04T15:48:34.409Z,6.70
2018-12-04T15:51:02.827Z,6.80
2018-12-04T15:53:30.394Z,6.80
2018-12-04T15:55:58.039Z,6.50
2018-12-04T15:58:26.621Z,6.60
2018-12-04T16:00:54.173Z,7.00
2018-12-04T16:03:22.084Z,6.50
2018-12-04T16:05:49.613Z,6.60
2018-12-04T16:08:17.183Z,6.60
2018-12-04T16:10:44.759Z,6.70
2018-12-04T16:13:12.771Z,6.70
2018-12-04T16:15:40.344Z,6.80
2018-12-04T16:18:07.866Z,6.60
2018-12-04T16:20:35.406Z,6.50
2018-12-04T16:23:02.954Z,6.60
2018-12-04T16:25:30.686Z,6.90
2018-12-04T16:27:58.524Z,6.70
2018-12-04T16:30:26.100Z,6.60
2018-12-04T16:32:53.638Z,6.10
2018-12-04T16:35:21.150Z,6.40
2018-12-04T16:37:48.700Z,6.70
2018-12-04T16:40:16.624Z,6.40
2018-12-04T16:42:44.166Z,6.40
2018-12-04T16:45:12.674Z,6.40
2018-12-04T16:47:40.210Z,6.40
2018-12-04T16:50:08.802Z,6.60
2018-12-04T16:52:36.342Z,6.40
2018-12-04T16:55:04.626Z,6.60
2018-12-04T16:57:32.146Z,6.00
2018-12-04T16:59:59.693Z,6.70
2018-12-04T17:02:27.218Z,6.50
2018-12-04T17:04:56.282Z,6.40
2018-12-04T17:07:23.822Z,6.50
2018-12-04T17:09:52.446Z,6.50
2018-12-04T17:12:19.991Z,6.40
2018-12-04T17:14:47.630Z,6.20
2018-12-04T17:17:15.253Z,6.00
2018-12-04T17:19:42.795Z,6.30
2018-12-04T17:22:11.468Z,6.10
2018-12-04T17:24:40.113Z,6.00
2018-12-04T17:27:07.653Z,6.00
2018-12-04T17:29:35.196Z,6.40
2018-12-04T17:32:03.397Z,6.00
2018-12-04T17:34:30.961Z,6.00
2018-12-04T17:36:58.609Z,6.20
2018-12-04T17:39:26.161Z,6.10
2018-12-04T17:41:56.258Z,6.10
2018-12-04T17:44:23.830Z,6.50
2018-12-04T17:46:51.985Z,5.80
2018-12-04T17:51:47.081Z,6.00
2018-12-04T17:54:16.222Z,5.90
2018-12-04T17:56:44.119Z,5.90
2018-12-04T18:01:40.430Z,6.20
2018-12-04T18:04:08.014Z,6.00
2018-12-04T18:06:35.522Z,5.90
2018-12-04T18:09:04.331Z,6.10
2018-12-04T18:11:34.795Z,5.80
2018-12-04T18:14:02.492Z,5.90
2018-12-04T18:16:30.770Z,5.80
2018-12-04T18:18:58.364Z,5.90
2018-12-04T18:21:26.440Z,5.80
2018-12-04T18:23:54.840Z,5.80
2018-12-04T18:26:25.251Z,5.60
2018-12-04T18:28:53.761Z,5.60
2018-12-04T18:31:22.330Z,5.60
2018-12-04T18:36:18.292Z,5.80
2018-12-04T18:38:47.862Z,5.70
2018-12-04T18:41:18.135Z,5.80
2018-12-04T18:43:47.004Z,6.00
2018-12-04T18:46:16.453Z,5.70
2018-12-04T18:48:44.569Z,5.80
2018-12-04T18:51:15.002Z,5.50
2018-12-04T18:53:42.550Z,5.30
2018-12-04T18:56:12.702Z,5.80
2018-12-04T18:58:41.068Z,5.50
2018-12-04T19:01:09.504Z,5.90
2018-12-04T19:03:38.948Z,5.60
2018-12-04T19:06:07.568Z,5.60
2018-12-04T19:08:40.785Z,5.70
2018-12-04T19:11:10.290Z,5.60
2018-12-04T19:13:42.055Z,5.60
2018-12-04T19:16:10.205Z,5.50
2018-12-04T19:18:38.429Z,5.40
2018-12-04T19:23:35.647Z,5.30
2018-12-04T19:28:33.562Z,5.30
2018-12-04T19:31:02.934Z,5.40
2018-12-04T19:33:30.788Z,5.40
2018-12-04T19:35:59.097Z,5.40
2018-12-04T19:38:27.113Z,5.40
2018-12-04T19:40:56.490Z,5.10
2018-12-04T19:43:25.744Z,5.50
2018-12-04T19:45:56.556Z,5.20
2018-12-04T19:48:25.254Z,5.70
2018-12-04T19:50:54.072Z,5.00
2018-12-04T19:53:22.592Z,5.20
2018-12-04T19:55:54.346Z,5.20
2018-12-04T19:58:22.235Z,5.20
2018-12-04T20:00:50.936Z,5.40
2018-12-04T20:05:47.964Z,5.40
2018-12-04T20:08:15.534Z,5.00
2018-12-04T20:10:43.930Z,5.50
2018-12-04T20:13:12.162Z,5.30
2018-12-04T20:15:40.562Z,5.30
2018-12-04T20:18:08.740Z,5.10
2018-12-04T20:23:04.508Z,5.20
2018-12-04T20:25:35.136Z,4.90
2018-12-04T20:28:02.713Z,5.10
2018-12-04T20:30:35.983Z,4.80
2018-12-04T20:33:08.646Z,4.90
2018-12-04T20:35:37.817Z,5.10
2018-12-04T20:38:08.979Z,4.70
2018-12-04T20:40:39.380Z,4.70
2018-12-04T20:43:07.071Z,5.10
2018-12-04T20:45:34.625Z,4.60
2018-12-04T20:48:03.876Z,4.50
2018-12-04T20:50:32.186Z,4.70
2018-12-04T20:53:00.764Z,4.80
2018-12-04T20:55:28.681Z,4.90
2018-12-04T20:57:56.347Z,4.80
2018-12-04T21:00:24.735Z,4.60
2018-12-04T21:02:54.594Z,4.50
2018-12-04T21:05:22.445Z,4.50
2018-12-04T21:07:50.385Z,4.10
2018-12-04T21:10:17.961Z,4.20
2018-12-04T21:12:46.490Z,4.30
2018-12-04T21:15:15.189Z,4.20
2018-12-04T21:17:44.475Z,4.40
2018-12-04T21:20:14.102Z,4.20
2018-12-04T21:22:43.015Z,4.50
2018-12-04T21:25:10.611Z,4.20
2018-12-04T21:27:44.553Z,4.20
2018-12-04T21:30:17.838Z,4.40
2018-12-04T21:35:56.742Z,4.40
2018-12-04T21:38:33.033Z,4.20
2018-12-04T21:41:03.153Z,4.20
2018-12-04T21:48:38.986Z,3.80
2018-12-04T21:51:06.975Z,4.30
2018-12-04T21:53:35.175Z,4.60
2018-12-04T21:56:03.840Z,4.40
2018-12-04T21:58:33.342Z,4.70
2018-12-04T22:01:04.023Z,4.60
2018-12-04T22:03:31.584Z,4.70
2018-12-04T22:05:59.133Z,4.70
2018-12-04T22:08:26.670Z,4.60
2018-12-04T22:10:54.274Z,4.70
2018-12-04T22:13:21.830Z,4.60
2018-12-04T22:15:49.775Z,4.70
2018-12-04T22:18:17.308Z,5.20
2018-12-04T22:20:44.834Z,4.50
2018-12-04T22:23:12.356Z,4.50
2018-12-04T22:25:39.914Z,4.70
2018-12-04T22:28:07.460Z,5.20
2018-12-04T22:30:34.967Z,4.90
2018-12-04T22:33:02.508Z,4.60
2018-12-04T22:35:30.346Z,4.80
2018-12-04T22:37:57.899Z,4.70
2018-12-04T22:40:25.410Z,4.70
2018-12-04T22:42:52.952Z,4.70
2018-12-04T22:45:25.714Z,4.40
2018-12-04T22:47:53.292Z,4.40
2018-12-04T22:50:20.875Z,4.50
2018-12-04T22:52:48.385Z,4.40
2018-12-04T22:55:15.883Z,4.80
2018-12-04T22:57:43.422Z,4.30
2018-12-04T23:00:16.696Z,4.30
2018-12-04T23:02:44.233Z,4.30
2018-12-04T23:05:11.813Z,4.20
2018-12-04T23:07:39.346Z,4.30
2018-12-04T23:10:07.940Z,4.20
2018-12-04T23:12:35.464Z,4.30
2018-12-04T23:15:03.081Z,4.60
2018-12-04T23:19:58.424Z,4.40
2018-12-04T23:22:25.952Z,4.40
2018-12-04T23:24:53.481Z,4.50
2018-12-04T23:27:21.004Z,4.10
2018-12-04T23:29:48.545Z,4.50
2018-12-04T23:32:16.062Z,4.60
2018-12-04T23:34:43.562Z,4.40
2018-12-04T23:37:11.095Z,4.30
2018-12-04T23:39:38.640Z,4.50
2018-12-04T23:42:06.153Z,4.30
2018-12-04T23:44:33.664Z,4.30
2018-12-04T23:47:01.149Z,4.20
2018-12-04T23:49:28.649Z,4.20
2018-12-04T23:51:56.152Z,4.00
2018-12-04T23:54:23.683Z,4.20
2018-12-04T23:56:51.170Z,4.40
2018-12-04T23:59:18.691Z,4.20
